To NAV CANADA Home Page Login to a new session Search on AWWS site Disclaimer Vers la page française équivalente Tips FAQ What's new on the site To the Forecasts and Observations / NOTAM section To "File a Flight Plan" website Publications and other links Update of the User's profile FIC Telephone Numbers My Weather Data Folder Route Weather Data Regional Weather Data Local Weather Data To the Forecasts and Observations / NOTAM section
Request Generated 03/19/2019 at 23:47:15 UTC . Weather information available at that time is displayed.

METAR/TAF

HALL BEACH/NU    (show WxCam)

SPECI CYUX 192323Z 32018G24KT 4SM BLSN FEW044 BKN120 M28/M32 A2980 RMK SC2AC3 BR OVR BASIN SLP093=
METAR CYUX 192300Z 32020G25KT 2SM BLSN SCT044 BKN120 M28/M32 A2979 RMK SC3AC3 SLP093=
SPECI CYUX 192244Z 32024KT 1 1/4SM BLSN SCT044 BKN080 M28/M31 A2979 RMK SC4AC2 SLP091=
METAR CYUX 192200Z 32024KT 3/4SM BLSN SCT044 BKN130 M28/M32 A2979 RMK BLSN1SC3AC3 SLP093=
SPECI CYUX 192154Z 32022KT 3/4SM BLSN SCT044 BKN130 M28/M32 A2980 RMK BLSN1SC3AC3 SLP093=
SPECI CYUX 192142Z 31019KT 2SM BLSN SCT080 BKN130 M28/M32 A2980 RMK AC3AC3 SLP095=
METAR CYUX 192100Z 31024KT 1SM BLSN SCT080 BKN120 M28/M31 A2979 RMK BLSN1AC3AC3 SLP093=

TAF AMD CYUX 192343Z 1923/2007 32017KT 6SM BLSN FEW040 SCT120 TEMPO
1923/2007 21/2SM BLSN PROB30 1923/2003 11/2SM BLSN
RMK NXT FCST BY 200100Z=
Your time UTC time
Weather data provided by Environment Canada and NAV CANADA